sensor_id;sensor_type;location;lat;lon;timestamp;pressure;altitude;pressure_sealevel;temperature
69785;BMP280;14177;51.520;6.764;2022-10-23T00:01:40;101265.19;;;12.22
69785;BMP280;14177;51.520;6.764;2022-10-23T00:04:16;101270.47;;;12.19
69785;BMP280;14177;51.520;6.764;2022-10-23T00:06:43;101274.88;;;12.17
69785;BMP280;14177;51.520;6.764;2022-10-23T00:09:14;101278.41;;;12.14
69785;BMP280;14177;51.520;6.764;2022-10-23T00:11:44;101272.38;;;12.12
69785;BMP280;14177;51.520;6.764;2022-10-23T00:14:15;101264.66;;;12.09
69785;BMP280;14177;51.520;6.764;2022-10-23T00:16:43;101266.44;;;12.09
69785;BMP280;14177;51.520;6.764;2022-10-23T00:19:10;101260.41;;;12.07
69785;BMP280;14177;51.520;6.764;2022-10-23T00:21:38;101262.22;;;12.05
69785;BMP280;14177;51.520;6.764;2022-10-23T00:24:06;101270.06;;;12.04
69785;BMP280;14177;51.520;6.764;2022-10-23T00:26:35;101256.19;;;12.03
69785;BMP280;14177;51.520;6.764;2022-10-23T00:29:03;101251.03;;;12.02
69785;BMP280;14177;51.520;6.764;2022-10-23T00:31:31;101250.19;;;12.01
69785;BMP280;14177;51.520;6.764;2022-10-23T00:33:59;101250.25;;;11.98
69785;BMP280;14177;51.520;6.764;2022-10-23T00:36:26;101252.94;;;11.97
69785;BMP280;14177;51.520;6.764;2022-10-23T00:38:54;101261.63;;;11.96
69785;BMP280;14177;51.520;6.764;2022-10-23T00:41:25;101253.91;;;11.93
69785;BMP280;14177;51.520;6.764;2022-10-23T00:44:09;101250.44;;;11.92
69785;BMP280;14177;51.520;6.764;2022-10-23T00:46:39;101246.22;;;11.88
69785;BMP280;14177;51.520;6.764;2022-10-23T00:49:06;101252.31;;;11.87
69785;BMP280;14177;51.520;6.764;2022-10-23T00:51:52;101250.63;;;11.86
69785;BMP280;14177;51.520;6.764;2022-10-23T00:54:24;101253.28;;;11.85
69785;BMP280;14177;51.520;6.764;2022-10-23T00:57:00;101243.69;;;11.85
69785;BMP280;14177;51.520;6.764;2022-10-23T00:59:28;101242.91;;;11.83
69785;BMP280;14177;51.520;6.764;2022-10-23T01:01:56;101240.38;;;11.80
69785;BMP280;14177;51.520;6.764;2022-10-23T01:04:26;101230.91;;;11.78
69785;BMP280;14177;51.520;6.764;2022-10-23T01:10:10;101240.56;;;11.74
69785;BMP280;14177;51.520;6.764;2022-10-23T01:13:09;101244.06;;;11.73
69785;BMP280;14177;51.520;6.764;2022-10-23T01:16:16;101237.13;;;11.72
69785;BMP280;14177;51.520;6.764;2022-10-23T01:21:30;101235.44;;;11.71
69785;BMP280;14177;51.520;6.764;2022-10-23T01:30:10;101237.31;;;11.66
69785;BMP280;14177;51.520;6.764;2022-10-23T01:33:06;101235.63;;;11.65
69785;BMP280;14177;51.520;6.764;2022-10-23T01:36:15;101223.53;;;11.64
69785;BMP280;14177;51.520;6.764;2022-10-23T01:38:56;101222.69;;;11.62
69785;BMP280;14177;51.520;6.764;2022-10-23T01:41:44;101223.59;;;11.61
69785;BMP280;14177;51.520;6.764;2022-10-23T01:44:31;101216.69;;;11.60
69785;BMP280;14177;51.520;6.764;2022-10-23T01:47:03;101213.19;;;11.61
69785;BMP280;14177;51.520;6.764;2022-10-23T01:49:36;101206.31;;;11.59
69785;BMP280;14177;51.520;6.764;2022-10-23T01:52:08;101204.56;;;11.59
69785;BMP280;14177;51.520;6.764;2022-10-23T01:54:42;101191.56;;;11.59
69785;BMP280;14177;51.520;6.764;2022-10-23T01:57:15;101200.19;;;11.61
69785;BMP280;14177;51.520;6.764;2022-10-23T01:59:50;101185.47;;;11.60
69785;BMP280;14177;51.520;6.764;2022-10-23T02:02:20;101181.09;;;11.61
69785;BMP280;14177;51.520;6.764;2022-10-23T02:05:14;101184.59;;;11.60
69785;BMP280;14177;51.520;6.764;2022-10-23T02:07:44;101179.44;;;11.58
69785;BMP280;14177;51.520;6.764;2022-10-23T02:10:12;101188.97;;;11.59
69785;BMP280;14177;51.520;6.764;2022-10-23T02:13:04;101188.06;;;11.60
69785;BMP280;14177;51.520;6.764;2022-10-23T02:15:37;101190.66;;;11.60
69785;BMP280;14177;51.520;6.764;2022-10-23T02:21:33;101175.97;;;11.58
69785;BMP280;14177;51.520;6.764;2022-10-23T02:24:12;101178.63;;;11.56
69785;BMP280;14177;51.520;6.764;2022-10-23T02:26:52;101171.72;;;11.55
69785;BMP280;14177;51.520;6.764;2022-10-23T02:29:33;101169.94;;;11.57
69785;BMP280;14177;51.520;6.764;2022-10-23T02:32:01;101165.63;;;11.56
69785;BMP280;14177;51.520;6.764;2022-10-23T02:34:28;101169.94;;;11.57
69785;BMP280;14177;51.520;6.764;2022-10-23T02:36:55;101171.72;;;11.55
69785;BMP280;14177;51.520;6.764;2022-10-23T02:39:26;101163.94;;;11.55
69785;BMP280;14177;51.520;6.764;2022-10-23T02:42:19;101161.31;;;11.55
69785;BMP280;14177;51.520;6.764;2022-10-23T02:45:06;101153.50;;;11.54
69785;BMP280;14177;51.520;6.764;2022-10-23T02:47:55;101159.56;;;11.56
69785;BMP280;14177;51.520;6.764;2022-10-23T02:56:11;101156.94;;;11.56
69785;BMP280;14177;51.520;6.764;2022-10-23T03:04:16;101152.69;;;11.53
69785;BMP280;14177;51.520;6.764;2022-10-23T03:06:45;101144.06;;;11.51
69785;BMP280;14177;51.520;6.764;2022-10-23T03:09:16;101148.38;;;11.52
69785;BMP280;14177;51.520;6.764;2022-10-23T03:11:43;101144.97;;;11.50
69785;BMP280;14177;51.520;6.764;2022-10-23T03:14:12;101134.50;;;11.52
69785;BMP280;14177;51.520;6.764;2022-10-23T03:16:39;101135.38;;;11.51
69785;BMP280;14177;51.520;6.764;2022-10-23T03:19:08;101123.25;;;11.51
69785;BMP280;14177;51.520;6.764;2022-10-23T03:21:35;101129.25;;;11.53
69785;BMP280;14177;51.520;6.764;2022-10-23T03:24:06;101120.66;;;11.51
69785;BMP280;14177;51.520;6.764;2022-10-23T03:26:38;101107.63;;;11.51
69785;BMP280;14177;51.520;6.764;2022-10-23T03:29:05;101116.34;;;11.50
69785;BMP280;14177;51.520;6.764;2022-10-23T03:31:39;101100.75;;;11.49
69785;BMP280;14177;51.520;6.764;2022-10-23T03:34:06;101107.72;;;11.48
69785;BMP280;14177;51.520;6.764;2022-10-23T03:36:39;101118.94;;;11.50
69785;BMP280;14177;51.520;6.764;2022-10-23T03:39:07;101102.53;;;11.48
69785;BMP280;14177;51.520;6.764;2022-10-23T03:41:34;101108.56;;;11.49
69785;BMP280;14177;51.520;6.764;2022-10-23T03:44:01;101112.94;;;11.48
69785;BMP280;14177;51.520;6.764;2022-10-23T03:46:27;101110.31;;;11.48
69785;BMP280;14177;51.520;6.764;2022-10-23T03:48:54;101098.22;;;11.47
69785;BMP280;14177;51.520;6.764;2022-10-23T03:51:24;101107.72;;;11.48
69785;BMP280;14177;51.520;6.764;2022-10-23T03:53:51;101099.06;;;11.48
69785;BMP280;14177;51.520;6.764;2022-10-23T03:56:18;101097.31;;;11.48
69785;BMP280;14177;51.520;6.764;2022-10-23T03:58:45;101088.63;;;11.49
69785;BMP280;14177;51.520;6.764;2022-10-23T04:01:12;101092.94;;;11.50
69785;BMP280;14177;51.520;6.764;2022-10-23T04:03:40;101092.84;;;11.53
69785;BMP280;14177;51.520;6.764;2022-10-23T04:06:07;101091.06;;;11.54
69785;BMP280;14177;51.520;6.764;2022-10-23T04:08:34;101091.06;;;11.54
69785;BMP280;14177;51.520;6.764;2022-10-23T04:11:07;101085.88;;;11.54
69785;BMP280;14177;51.520;6.764;2022-10-23T04:13:41;101090.19;;;11.56
69785;BMP280;14177;51.520;6.764;2022-10-23T04:16:08;101086.69;;;11.57
69785;BMP280;14177;51.520;6.764;2022-10-23T04:18:36;101095.22;;;11.61
69785;BMP280;14177;51.520;6.764;2022-10-23T04:21:03;101101.25;;;11.63
69785;BMP280;14177;51.520;6.764;2022-10-23T04:23:31;101092.53;;;11.64
69785;BMP280;14177;51.520;6.764;2022-10-23T04:25:58;101080.41;;;11.63
69785;BMP280;14177;51.520;6.764;2022-10-23T04:28:26;101083.03;;;11.63
69785;BMP280;14177;51.520;6.764;2022-10-23T04:30:53;101077.81;;;11.63
69785;BMP280;14177;51.520;6.764;2022-10-23T04:33:21;101071.72;;;11.64
69785;BMP280;14177;51.520;6.764;2022-10-23T04:35:49;101057.06;;;11.61
69785;BMP280;14177;51.520;6.764;2022-10-23T04:38:16;101064.81;;;11.63
69785;BMP280;14177;51.520;6.764;2022-10-23T04:40:43;101058.78;;;11.62
69785;BMP280;14177;51.520;6.764;2022-10-23T04:43:11;101058.78;;;11.62
69785;BMP280;14177;51.520;6.764;2022-10-23T04:45:39;101056.16;;;11.62
69785;BMP280;14177;51.520;6.764;2022-10-23T04:48:07;101055.28;;;11.63
69785;BMP280;14177;51.520;6.764;2022-10-23T04:51:02;101043.06;;;11.65
69785;BMP280;14177;51.520;6.764;2022-10-23T04:53:49;101043.06;;;11.65
69785;BMP280;14177;51.520;6.764;2022-10-23T04:56:33;101054.25;;;11.67
69785;BMP280;14177;51.520;6.764;2022-10-23T04:59:04;101050.81;;;11.67
69785;BMP280;14177;51.520;6.764;2022-10-23T05:01:38;101045.59;;;11.67
69785;BMP280;14177;51.520;6.764;2022-10-23T05:04:06;101049.84;;;11.69
69785;BMP280;14177;51.520;6.764;2022-10-23T05:06:45;101046.41;;;11.69
69785;BMP280;14177;51.520;6.764;2022-10-23T05:09:31;101048.03;;;11.71
69785;BMP280;14177;51.520;6.764;2022-10-23T05:12:05;101050.72;;;11.70
69785;BMP280;14177;51.520;6.764;2022-10-23T05:14:32;101057.63;;;11.71
69785;BMP280;14177;51.520;6.764;2022-10-23T05:17:06;101044.53;;;11.72
69785;BMP280;14177;51.520;6.764;2022-10-23T05:19:42;101042.84;;;11.71
69785;BMP280;14177;51.520;6.764;2022-10-23T05:22:10;101026.41;;;11.69
69785;BMP280;14177;51.520;6.764;2022-10-23T05:24:52;101028.09;;;11.72
69785;BMP280;14177;51.520;6.764;2022-10-23T05:27:23;101029.69;;;11.76
69785;BMP280;14177;51.520;6.764;2022-10-23T05:29:52;101015.72;;;11.78
69785;BMP280;14177;51.520;6.764;2022-10-23T05:32:26;101014.00;;;11.79
69785;BMP280;14177;51.520;6.764;2022-10-23T05:34:57;101014.00;;;11.79
69785;BMP280;14177;51.520;6.764;2022-10-23T05:37:28;101009.63;;;11.79
69785;BMP280;14177;51.520;6.764;2022-10-23T05:40:06;101011.41;;;11.77
69785;BMP280;14177;51.520;6.764;2022-10-23T05:42:35;101018.31;;;11.78
69785;BMP280;14177;51.520;6.764;2022-10-23T05:45:07;101014.00;;;11.77
69785;BMP280;14177;51.520;6.764;2022-10-23T05:47:44;101011.41;;;11.77
69785;BMP280;14177;51.520;6.764;2022-10-23T05:50:28;101003.56;;;11.79
69785;BMP280;14177;51.520;6.764;2022-10-23T05:53:13;101002.78;;;11.77
69785;BMP280;14177;51.520;6.764;2022-10-23T05:56:06;100987.97;;;11.79
69785;BMP280;14177;51.520;6.764;2022-10-23T05:58:53;100988.78;;;11.79
69785;BMP280;14177;51.520;6.764;2022-10-23T06:01:29;100987.09;;;11.78
69785;BMP280;14177;51.520;6.764;2022-10-23T06:04:04;100991.31;;;11.82
69785;BMP280;14177;51.520;6.764;2022-10-23T06:06:49;100998.16;;;11.85
69785;BMP280;14177;51.520;6.764;2022-10-23T06:09:17;101005.19;;;11.83
69785;BMP280;14177;51.520;6.764;2022-10-23T06:11:46;100990.50;;;11.80
69785;BMP280;14177;51.520;6.764;2022-10-23T06:14:18;100983.59;;;11.79
69785;BMP280;14177;51.520;6.764;2022-10-23T06:16:46;100985.38;;;11.77
69785;BMP280;14177;51.520;6.764;2022-10-23T06:19:13;100979.34;;;11.77
69785;BMP280;14177;51.520;6.764;2022-10-23T06:21:41;100985.38;;;11.77
69785;BMP280;14177;51.520;6.764;2022-10-23T06:24:11;100986.25;;;11.78
69785;BMP280;14177;51.520;6.764;2022-10-23T06:26:47;100987.09;;;11.78
69785;BMP280;14177;51.520;6.764;2022-10-23T06:29:34;100989.69;;;11.78
69785;BMP280;14177;51.520;6.764;2022-10-23T06:32:01;100987.06;;;11.80
69785;BMP280;14177;51.520;6.764;2022-10-23T06:34:28;100987.88;;;11.82
69785;BMP280;14177;51.520;6.764;2022-10-23T06:36:55;100988.75;;;11.81
69785;BMP280;14177;51.520;6.764;2022-10-23T06:39:44;100991.25;;;11.84
69785;BMP280;14177;51.520;6.764;2022-10-23T06:42:31;100994.66;;;11.86
69785;BMP280;14177;51.520;6.764;2022-10-23T06:44:58;100985.97;;;11.87
69785;BMP280;14177;51.520;6.764;2022-10-23T06:48:05;100989.41;;;11.87
69785;BMP280;14177;51.520;6.764;2022-10-23T06:50:55;100983.19;;;11.91
69785;BMP280;14177;51.520;6.764;2022-10-23T06:53:33;100976.19;;;11.93
69785;BMP280;14177;51.520;6.764;2022-10-23T06:56:11;100982.19;;;11.95
69785;BMP280;14177;51.520;6.764;2022-10-23T06:58:42;100968.25;;;11.98
69785;BMP280;14177;51.520;6.764;2022-10-23T07:01:19;100971.41;;;12.06
69785;BMP280;14177;51.520;6.764;2022-10-23T07:03:52;100960.94;;;12.07
69785;BMP280;14177;51.520;6.764;2022-10-23T07:06:24;100962.59;;;12.09
69785;BMP280;14177;51.520;6.764;2022-10-23T07:08:54;100964.19;;;12.13
69785;BMP280;14177;51.520;6.764;2022-10-23T07:11:54;100956.34;;;12.15
69785;BMP280;14177;51.520;6.764;2022-10-23T07:14:27;100959.63;;;12.20
69785;BMP280;14177;51.520;6.764;2022-10-23T07:16:59;100960.38;;;12.23
69785;BMP280;14177;51.520;6.764;2022-10-23T07:19:27;100964.53;;;12.29
69785;BMP280;14177;51.520;6.764;2022-10-23T07:22:04;100964.31;;;12.35
69785;BMP280;14177;51.520;6.764;2022-10-23T07:24:42;100956.22;;;12.42
69785;BMP280;14177;51.520;6.764;2022-10-23T07:27:24;100960.94;;;12.56
69785;BMP280;14177;51.520;6.764;2022-10-23T07:29:56;100945.06;;;12.62
69785;BMP280;14177;51.520;6.764;2022-10-23T07:32:28;100944.72;;;12.71
69785;BMP280;14177;51.520;6.764;2022-10-23T07:35:16;100944.50;;;12.77
69785;BMP280;14177;51.520;6.764;2022-10-23T07:37:52;100935.47;;;12.85
69785;BMP280;14177;51.520;6.764;2022-10-23T07:40:20;100939.59;;;12.92
69785;BMP280;14177;51.520;6.764;2022-10-23T07:42:50;100938.34;;;13.02
69785;BMP280;14177;51.520;6.764;2022-10-23T07:45:17;100935.47;;;13.10
69785;BMP280;14177;51.520;6.764;2022-10-23T07:47:50;100941.28;;;13.16
69785;BMP280;14177;51.520;6.764;2022-10-23T07:50:19;100928.78;;;13.24
69785;BMP280;14177;51.520;6.764;2022-10-23T07:52:47;100938.00;;;13.32
69785;BMP280;14177;51.520;6.764;2022-10-23T07:55:17;100938.50;;;13.42
69785;BMP280;14177;51.520;6.764;2022-10-23T07:57:52;100933.75;;;13.51
69785;BMP280;14177;51.520;6.764;2022-10-23T08:00:58;100928.16;;;13.60
69785;BMP280;14177;51.520;6.764;2022-10-23T08:03:32;100928.63;;;13.70
69785;BMP280;14177;51.520;6.764;2022-10-23T08:06:01;100923.88;;;13.79
69785;BMP280;14177;51.520;6.764;2022-10-23T08:08:28;100923.47;;;13.88
69785;BMP280;14177;51.520;6.764;2022-10-23T08:11:00;100918.72;;;13.98
69785;BMP280;14177;51.520;6.764;2022-10-23T08:13:33;100919.19;;;14.07
69785;BMP280;14177;51.520;6.764;2022-10-23T08:16:03;100920.53;;;14.17
69785;BMP280;14177;51.520;6.764;2022-10-23T08:19:05;100914.75;;;14.29
69785;BMP280;14177;51.520;6.764;2022-10-23T08:21:34;100914.28;;;14.40
69785;BMP280;14177;51.520;6.764;2022-10-23T08:24:02;100909.44;;;14.51
69785;BMP280;14177;51.520;6.764;2022-10-23T08:26:30;100914.13;;;14.62
69785;BMP280;14177;51.520;6.764;2022-10-23T08:28:58;100910.66;;;14.80
69785;BMP280;14177;51.520;6.764;2022-10-23T08:31:29;100905.41;;;14.99
69785;BMP280;14177;51.520;6.764;2022-10-23T08:34:12;100901.66;;;15.23
69785;BMP280;14177;51.520;6.764;2022-10-23T08:36:40;100905.19;;;15.40
69785;BMP280;14177;51.520;6.764;2022-10-23T08:39:08;100903.28;;;15.61
69785;BMP280;14177;51.520;6.764;2022-10-23T08:41:48;100904.06;;;15.80
69785;BMP280;14177;51.520;6.764;2022-10-23T08:44:50;100904.34;;;16.07
69785;BMP280;14177;51.520;6.764;2022-10-23T08:47:47;100905.03;;;16.28
69785;BMP280;14177;51.520;6.764;2022-10-23T08:51:33;100900.38;;;16.50
69785;BMP280;14177;51.520;6.764;2022-10-23T08:54:12;100898.78;;;16.63
69785;BMP280;14177;51.520;6.764;2022-10-23T08:56:45;100890.53;;;16.70
69785;BMP280;14177;51.520;6.764;2022-10-23T08:59:59;100881.72;;;16.71
69785;BMP280;14177;51.520;6.764;2022-10-23T09:02:41;100873.09;;;16.69
69785;BMP280;14177;51.520;6.764;2022-10-23T09:05:43;100872.00;;;16.73
69785;BMP280;14177;51.520;6.764;2022-10-23T09:08:44;100856.16;;;16.75
69785;BMP280;14177;51.520;6.764;2022-10-23T09:11:42;100856.94;;;16.77
69785;BMP280;14177;51.520;6.764;2022-10-23T09:17:30;100850.31;;;16.85
69785;BMP280;14177;51.520;6.764;2022-10-23T09:20:06;100839.41;;;16.93
69785;BMP280;14177;51.520;6.764;2022-10-23T09:22:36;100842.63;;;16.98
69785;BMP280;14177;51.520;6.764;2022-10-23T09:25:09;100837.03;;;17.04
69785;BMP280;14177;51.520;6.764;2022-10-23T09:27:37;100837.69;;;17.07
69785;BMP280;14177;51.520;6.764;2022-10-23T09:30:05;100826.84;;;17.13
69785;BMP280;14177;51.520;6.764;2022-10-23T09:32:37;100828.19;;;17.20
69785;BMP280;14177;51.520;6.764;2022-10-23T09:35:05;100833.84;;;17.28
69785;BMP280;14177;51.520;6.764;2022-10-23T09:37:34;100815.38;;;17.29
69785;BMP280;14177;51.520;6.764;2022-10-23T09:40:44;100821.94;;;17.38
69785;BMP280;14177;51.520;6.764;2022-10-23T09:43:18;100819.50;;;17.49
69785;BMP280;14177;51.520;6.764;2022-10-23T09:45:59;100826.47;;;17.64
69785;BMP280;14177;51.520;6.764;2022-10-23T09:48:26;100816.94;;;17.77
69785;BMP280;14177;51.520;6.764;2022-10-23T09:51:00;100812.53;;;17.91
69785;BMP280;14177;51.520;6.764;2022-10-23T09:53:38;100804.69;;;18.05
69785;BMP280;14177;51.520;6.764;2022-10-23T09:56:29;100806.56;;;18.17
69785;BMP280;14177;51.520;6.764;2022-10-23T09:59:26;100814.56;;;18.30
69785;BMP280;14177;51.520;6.764;2022-10-23T10:02:01;100797.38;;;18.38
69785;BMP280;14177;51.520;6.764;2022-10-23T10:05:28;100801.22;;;18.46
69785;BMP280;14177;51.520;6.764;2022-10-23T10:11:04;100803.81;;;18.60
69785;BMP280;14177;51.520;6.764;2022-10-23T10:19:17;100789.53;;;18.64
69785;BMP280;14177;51.520;6.764;2022-10-23T10:25:11;100772.50;;;18.70
69785;BMP280;14177;51.520;6.764;2022-10-23T10:27:55;100764.31;;;18.74
69785;BMP280;14177;51.520;6.764;2022-10-23T10:30:48;100755.50;;;18.75
69785;BMP280;14177;51.520;6.764;2022-10-23T10:33:35;100756.13;;;18.79
69785;BMP280;14177;51.520;6.764;2022-10-23T10:39:39;100739.13;;;18.84
69785;BMP280;14177;51.520;6.764;2022-10-23T10:54:34;100709.97;;;19.26
69785;BMP280;14177;51.520;6.764;2022-10-23T10:57:18;100701.03;;;19.29
69785;BMP280;14177;51.520;6.764;2022-10-23T10:59:59;100693.84;;;19.31
69785;BMP280;14177;51.520;6.764;2022-10-23T11:02:42;100689.31;;;19.33
69785;BMP280;14177;51.520;6.764;2022-10-23T11:05:34;100689.09;;;19.36
69785;BMP280;14177;51.520;6.764;2022-10-23T11:10:59;100682.16;;;19.47
69785;BMP280;14177;51.520;6.764;2022-10-23T11:14:22;100661.50;;;19.54
69785;BMP280;14177;51.520;6.764;2022-10-23T11:17:01;100661.81;;;19.61
69785;BMP280;14177;51.520;6.764;2022-10-23T11:23:21;100658.72;;;19.80
69785;BMP280;14177;51.520;6.764;2022-10-23T11:36:31;100604.31;;;20.04
69785;BMP280;14177;51.520;6.764;2022-10-23T11:39:25;100612.72;;;20.09
69785;BMP280;14177;51.520;6.764;2022-10-23T11:44:48;100611.09;;;20.19
69785;BMP280;14177;51.520;6.764;2022-10-23T11:50:13;100587.97;;;20.22
69785;BMP280;14177;51.520;6.764;2022-10-23T11:53:02;100601.06;;;20.24
69785;BMP280;14177;51.520;6.764;2022-10-23T11:56:00;100602.31;;;20.31
69785;BMP280;14177;51.520;6.764;2022-10-23T11:58:54;100596.81;;;20.34
69785;BMP280;14177;51.520;6.764;2022-10-23T12:01:40;100573.88;;;20.34
69785;BMP280;14177;51.520;6.764;2022-10-23T12:06:57;100576.31;;;20.37
69785;BMP280;14177;51.520;6.764;2022-10-23T12:09:39;100575.84;;;20.43
69785;BMP280;14177;51.520;6.764;2022-10-23T12:14:45;100584.88;;;20.86
69785;BMP280;14177;51.520;6.764;2022-10-23T12:23:04;100568.28;;;21.51
69785;BMP280;14177;51.520;6.764;2022-10-23T12:26:19;100561.78;;;21.77
69785;BMP280;14177;51.520;6.764;2022-10-23T12:29:35;100546.31;;;22.04
69785;BMP280;14177;51.520;6.764;2022-10-23T12:38:24;100538.13;;;22.07
69785;BMP280;14177;51.520;6.764;2022-10-23T12:41:12;100531.44;;;21.92
69785;BMP280;14177;51.520;6.764;2022-10-23T12:43:43;100530.78;;;21.79
69785;BMP280;14177;51.520;6.764;2022-10-23T12:48:53;100524.78;;;21.77
69785;BMP280;14177;51.520;6.764;2022-10-23T12:51:31;100514.44;;;21.85
69785;BMP280;14177;51.520;6.764;2022-10-23T12:53:59;100505.00;;;21.92
69785;BMP280;14177;51.520;6.764;2022-10-23T12:56:34;100508.13;;;21.97
69785;BMP280;14177;51.520;6.764;2022-10-23T12:59:01;100501.63;;;22.01
69785;BMP280;14177;51.520;6.764;2022-10-23T13:01:37;100500.94;;;21.88
69785;BMP280;14177;51.520;6.764;2022-10-23T13:06:56;100474.81;;;21.74
69785;BMP280;14177;51.520;6.764;2022-10-23T13:09:36;100484.91;;;21.69
69785;BMP280;14177;51.520;6.764;2022-10-23T13:12:37;100491.66;;;21.62
69785;BMP280;14177;51.520;6.764;2022-10-23T13:20:30;100474.69;;;21.65
69785;BMP280;14177;51.520;6.764;2022-10-23T13:26:03;100458.81;;;21.54
69785;BMP280;14177;51.520;6.764;2022-10-23T13:28:50;100457.28;;;21.51
69785;BMP280;14177;51.520;6.764;2022-10-23T13:34:04;100447.94;;;21.36
69785;BMP280;14177;51.520;6.764;2022-10-23T13:36:35;100454.19;;;21.24
69785;BMP280;14177;51.520;6.764;2022-10-23T13:41:44;100459.47;;;21.13
69785;BMP280;14177;51.520;6.764;2022-10-23T13:44:15;100460.09;;;21.06
69785;BMP280;14177;51.520;6.764;2022-10-23T13:46:43;100449.53;;;21.06
69785;BMP280;14177;51.520;6.764;2022-10-23T13:49:10;100446.31;;;21.02
69785;BMP280;14177;51.520;6.764;2022-10-23T13:51:56;100443.06;;;20.99
69785;BMP280;14177;51.520;6.764;2022-10-23T13:54:27;100435.28;;;20.97
69785;BMP280;14177;51.520;6.764;2022-10-23T13:56:59;100432.41;;;21.00
69785;BMP280;14177;51.520;6.764;2022-10-23T13:59:26;100433.59;;;20.96
69785;BMP280;14177;51.520;6.764;2022-10-23T14:01:53;100440.78;;;20.94
69785;BMP280;14177;51.520;6.764;2022-10-23T14:04:20;100438.41;;;20.91
69785;BMP280;14177;51.520;6.764;2022-10-23T14:06:47;100438.63;;;20.88
69785;BMP280;14177;51.520;6.764;2022-10-23T14:09:17;100432.41;;;20.89
69785;BMP280;14177;51.520;6.764;2022-10-23T14:11:44;100439.47;;;20.89
69785;BMP280;14177;51.520;6.764;2022-10-23T14:14:11;100429.75;;;20.89
69785;BMP280;14177;51.520;6.764;2022-10-23T14:16:38;100429.03;;;20.88
69785;BMP280;14177;51.520;6.764;2022-10-23T14:19:05;100425.69;;;20.86
69785;BMP280;14177;51.520;6.764;2022-10-23T14:21:33;100427.47;;;20.85
69785;BMP280;14177;51.520;6.764;2022-10-23T14:24:00;100428.41;;;20.84
69785;BMP280;14177;51.520;6.764;2022-10-23T14:26:27;100418.00;;;20.83
69785;BMP280;14177;51.520;6.764;2022-10-23T14:28:57;100412.91;;;20.80
69785;BMP280;14177;51.520;6.764;2022-10-23T14:31:30;100404.28;;;20.78
69785;BMP280;14177;51.520;6.764;2022-10-23T14:34:01;100394.56;;;20.78
69785;BMP280;14177;51.520;6.764;2022-10-23T14:36:28;100393.47;;;20.70
69785;BMP280;14177;51.520;6.764;2022-10-23T14:39:15;100392.28;;;20.63
69785;BMP280;14177;51.520;6.764;2022-10-23T14:41:42;100386.19;;;20.62
69785;BMP280;14177;51.520;6.764;2022-10-23T14:44:09;100388.91;;;20.61
69785;BMP280;14177;51.520;6.764;2022-10-23T14:46:36;100387.47;;;20.57
69785;BMP280;14177;51.520;6.764;2022-10-23T14:49:05;100380.88;;;20.51
69785;BMP280;14177;51.520;6.764;2022-10-23T14:51:32;100372.34;;;20.48
69785;BMP280;14177;51.520;6.764;2022-10-23T14:54:02;100366.50;;;20.44
69785;BMP280;14177;51.520;6.764;2022-10-23T14:56:32;100364.22;;;20.40
69785;BMP280;14177;51.520;6.764;2022-10-23T14:59:00;100370.31;;;20.40
69785;BMP280;14177;51.520;6.764;2022-10-23T15:01:34;100378.59;;;20.36
69785;BMP280;14177;51.520;6.764;2022-10-23T15:04:03;100364.69;;;20.34
69785;BMP280;14177;51.520;6.764;2022-10-23T15:06:31;100367.66;;;20.29
69785;BMP280;14177;51.520;6.764;2022-10-23T15:08:58;100378.69;;;20.23
69785;BMP280;14177;51.520;6.764;2022-10-23T15:11:26;100399.69;;;20.25
69785;BMP280;14177;51.520;6.764;2022-10-23T15:13:54;100392.81;;;20.22
69785;BMP280;14177;51.520;6.764;2022-10-23T15:16:22;100395.81;;;20.18
69785;BMP280;14177;51.520;6.764;2022-10-23T15:18:50;100397.97;;;20.13
69785;BMP280;14177;51.520;6.764;2022-10-23T15:21:22;100394.84;;;20.08
69785;BMP280;14177;51.520;6.764;2022-10-23T15:23:53;100384.53;;;20.05
69785;BMP280;14177;51.520;6.764;2022-10-23T15:26:24;100388.94;;;20.04
69785;BMP280;14177;51.520;6.764;2022-10-23T15:29:02;100382.84;;;20.04
69785;BMP280;14177;51.520;6.764;2022-10-23T15:34:22;100386.75;;;19.98
69785;BMP280;14177;51.520;6.764;2022-10-23T15:36:54;100372.72;;;19.98
69785;BMP280;14177;51.520;6.764;2022-10-23T15:39:28;100370.69;;;19.90
69785;BMP280;14177;51.520;6.764;2022-10-23T15:42:01;100387.31;;;19.91
69785;BMP280;14177;51.520;6.764;2022-10-23T15:44:32;100397.09;;;19.78
69785;BMP280;14177;51.520;6.764;2022-10-23T15:47:05;100396.09;;;19.68
69785;BMP280;14177;51.520;6.764;2022-10-23T15:49:36;100394.97;;;19.59
69785;BMP280;14177;51.520;6.764;2022-10-23T15:52:11;100384.06;;;19.53
69785;BMP280;14177;51.520;6.764;2022-10-23T15:54:41;100398.88;;;19.43
69785;BMP280;14177;51.520;6.764;2022-10-23T15:57:09;100375.81;;;19.34
69785;BMP280;14177;51.520;6.764;2022-10-23T15:59:36;100356.28;;;19.26
69785;BMP280;14177;51.520;6.764;2022-10-23T16:02:08;100353.47;;;19.16
69785;BMP280;14177;51.520;6.764;2022-10-23T16:04:54;100366.06;;;19.11
69785;BMP280;14177;51.520;6.764;2022-10-23T16:07:28;100377.03;;;19.05
69785;BMP280;14177;51.520;6.764;2022-10-23T16:09:56;100376.25;;;18.92
69785;BMP280;14177;51.520;6.764;2022-10-23T16:12:46;100384.16;;;18.80
69785;BMP280;14177;51.520;6.764;2022-10-23T16:16:02;100397.22;;;18.69
69785;BMP280;14177;51.520;6.764;2022-10-23T16:18:45;100392.84;;;18.57
69785;BMP280;14177;51.520;6.764;2022-10-23T16:21:34;100404.63;;;18.51
69785;BMP280;14177;51.520;6.764;2022-10-23T16:24:06;100393.69;;;18.45
69785;BMP280;14177;51.520;6.764;2022-10-23T16:26:38;100400.09;;;18.41
69785;BMP280;14177;51.520;6.764;2022-10-23T16:29:11;100388.72;;;18.40
69785;BMP280;14177;51.520;6.764;2022-10-23T16:31:41;100389.16;;;18.34
69785;BMP280;14177;51.520;6.764;2022-10-23T16:34:09;100378.31;;;18.27
69785;BMP280;14177;51.520;6.764;2022-10-23T16:36:36;100383.00;;;18.22
69785;BMP280;14177;51.520;6.764;2022-10-23T16:39:29;100384.81;;;18.21
69785;BMP280;14177;51.520;6.764;2022-10-23T16:42:15;100384.19;;;18.18
69785;BMP280;14177;51.520;6.764;2022-10-23T16:44:57;100400.25;;;18.13